Time;durP1;ratioP1;P1;durP2;ratioP2;P2;SDS_P1;SDS_P2;PMS_P1;PMS_P2;Temp;Humidity;BMP_temperature;BMP_pressure;BME280_temperature;BME280_humidity;BME280_pressure;Samples;Min_cycle;Max_cycle;Signal;HPM_P1;HPM_P2
2022/03/28 00:00:39;;;;;;;35.72;16.95;;;15.70;46.50;;;;;;5052516;28;20029;-80
2022/03/28 00:03:05;;;;;;;38.15;16.58;;;15.60;46.70;;;;;;5053222;28;20022;-81
2022/03/28 00:05:32;;;;;;;35.53;15.25;;;15.60;46.70;;;;;;5036269;28;20037;-81
2022/03/28 00:07:58;;;;;;;36.67;16.90;;;15.50;47.00;;;;;;5037251;28;20029;-80
2022/03/28 00:10:24;;;;;;;33.97;16.15;;;15.40;47.00;;;;;;5037427;28;20499;-80
2022/03/28 00:12:50;;;;;;;34.45;16.73;;;15.40;47.50;;;;;;5037409;28;20041;-81
2022/03/28 00:15:17;;;;;;;31.88;15.73;;;15.40;47.80;;;;;;5037302;28;20175;-80
2022/03/28 00:17:42;;;;;;;31.52;16.02;;;15.30;47.30;;;;;;5036045;28;20548;-80
2022/03/28 00:20:12;;;;;;;34.45;16.17;;;15.30;47.90;;;;;;5037035;28;20372;-80
2022/03/28 00:22:39;;;;;;;31.42;16.45;;;15.30;47.10;;;;;;5036005;28;20025;-81
2022/03/28 00:25:10;;;;;;;34.63;16.52;;;15.30;47.10;;;;;;5037324;28;20025;-80
2022/03/28 00:27:37;;;;;;;36.30;16.70;;;15.20;47.40;;;;;;5037018;28;20025;-81
2022/03/28 00:30:05;;;;;;;38.40;17.15;;;15.20;47.10;;;;;;5037167;28;20020;-81
2022/03/28 00:32:30;;;;;;;33.78;16.88;;;15.30;46.90;;;;;;5037191;28;20373;-81
2022/03/28 00:34:56;;;;;;;36.20;17.05;;;15.30;47.10;;;;;;5036803;28;20053;-81
2022/03/28 00:37:22;;;;;;;36.78;16.40;;;15.20;47.20;;;;;;5036489;28;20022;-80
2022/03/28 00:39:48;;;;;;;40.60;16.10;;;15.20;46.80;;;;;;5070116;28;20373;-80
2022/03/28 00:42:14;;;;;;;31.75;15.13;;;15.20;47.00;;;;;;5054092;28;20040;-80
2022/03/28 00:44:40;;;;;;;35.47;15.50;;;15.20;46.90;;;;;;5056973;28;20490;-80
2022/03/28 00:47:06;;;;;;;32.58;15.25;;;15.20;46.90;;;;;;5049121;28;20040;-81
2022/03/28 00:49:32;;;;;;;37.80;15.93;;;15.20;47.30;;;;;;5056754;28;20515;-81
2022/03/28 00:51:58;;;;;;;34.88;15.45;;;15.10;47.00;;;;;;5055431;28;20033;-80
2022/03/28 00:54:24;;;;;;;38.28;16.45;;;15.10;47.20;;;;;;5056626;28;20356;-81
2022/03/28 00:56:50;;;;;;;33.30;15.50;;;15.10;47.10;;;;;;5054395;28;20041;-81
2022/03/28 00:59:17;;;;;;;35.90;15.68;;;15.00;47.60;;;;;;5056141;28;20017;-81
2022/03/28 01:01:46;;;;;;;34.10;15.63;;;15.00;47.40;;;;;;5043415;28;20035;-80
2022/03/28 01:04:12;;;;;;;35.72;16.08;;;15.00;47.20;;;;;;5068455;28;20030;-80
2022/03/28 01:06:38;;;;;;;34.58;15.75;;;15.00;47.30;;;;;;5068405;28;20042;-80
2022/03/28 01:09:05;;;;;;;32.78;15.70;;;15.00;47.20;;;;;;5050819;28;20059;-80
2022/03/28 01:11:34;;;;;;;34.47;16.73;;;14.90;47.60;;;;;;5051570;28;20029;-80
2022/03/28 01:14:01;;;;;;;34.77;15.47;;;14.90;47.30;;;;;;5036217;28;20026;-80
2022/03/28 01:18:05;;;;;;;32.38;15.57;;;14.90;47.60;;;;;;5035528;28;20814;-80
2022/03/28 01:19:23;;;;;;;37.58;15.80;;;14.80;48.00;;;;;;5035598;28;20639;-80
2022/03/28 01:21:52;;;;;;;34.53;15.90;;;14.80;47.40;;;;;;5035914;28;20124;-81
2022/03/28 01:24:18;;;;;;;32.45;15.27;;;14.80;47.50;;;;;;5038456;28;20022;-80
2022/03/28 01:26:45;;;;;;;33.80;15.90;;;14.80;47.50;;;;;;5049781;28;20099;-80
2022/03/28 01:29:12;;;;;;;37.63;16.38;;;14.70;47.70;;;;;;5036055;28;20549;-80
2022/03/28 01:31:41;;;;;;;36.85;17.38;;;14.70;47.90;;;;;;5035906;28;20806;-81
2022/03/28 01:34:16;;;;;;;32.22;15.45;;;14.80;47.60;;;;;;5035955;28;20029;-80
2022/03/28 01:36:44;;;;;;;34.38;14.80;;;14.70;48.10;;;;;;5034078;28;20192;-80
2022/03/28 01:39:10;;;;;;;31.15;14.95;;;14.70;48.10;;;;;;5035848;28;20021;-80
2022/03/28 01:41:36;;;;;;;36.30;16.30;;;14.70;47.90;;;;;;5034297;28;20033;-80
2022/03/28 01:44:01;;;;;;;35.42;16.33;;;14.70;47.90;;;;;;5034269;28;20108;-81
2022/03/28 01:46:27;;;;;;;36.47;15.50;;;14.60;47.90;;;;;;5034395;28;20025;-80
2022/03/28 01:48:52;;;;;;;32.10;15.05;;;14.50;48.00;;;;;;5051360;28;20036;-80
2022/03/28 01:51:18;;;;;;;32.20;15.77;;;14.50;48.30;;;;;;5067296;28;20032;-80
2022/03/28 01:53:44;;;;;;;31.52;15.88;;;14.50;48.30;;;;;;5035020;28;20044;-80
2022/03/28 01:56:10;;;;;;;35.75;15.73;;;14.50;47.80;;;;;;5034304;28;20030;-81
2022/03/28 01:58:35;;;;;;;35.60;15.77;;;14.50;48.00;;;;;;5035375;28;20029;-80
2022/03/28 02:01:01;;;;;;;36.65;16.55;;;14.50;48.10;;;;;;5053939;28;20053;-80
2022/03/28 02:03:26;;;;;;;37.38;16.48;;;14.50;48.20;;;;;;5055411;28;20025;-81
2022/03/28 02:05:52;;;;;;;34.50;16.50;;;14.40;47.90;;;;;;5052842;28;20025;-80
2022/03/28 02:08:18;;;;;;;33.42;16.40;;;14.40;48.00;;;;;;5055221;28;20567;-80
2022/03/28 02:10:43;;;;;;;34.85;15.95;;;14.40;48.00;;;;;;5036196;28;20034;-80
2022/03/28 02:13:09;;;;;;;36.25;16.15;;;14.40;48.30;;;;;;5034706;28;20111;-81
2022/03/28 02:15:35;;;;;;;34.63;15.77;;;14.40;48.60;;;;;;5033917;28;20034;-80
2022/03/28 02:18:00;;;;;;;33.83;16.17;;;14.40;48.40;;;;;;5033673;28;20032;-80
2022/03/28 02:20:27;;;;;;;28.77;14.32;;;14.30;48.60;;;;;;5035098;28;20035;-81
2022/03/28 02:22:52;;;;;;;32.60;16.88;;;14.30;48.20;;;;;;5045199;28;20021;-80
2022/03/28 02:25:19;;;;;;;34.15;15.52;;;14.20;48.50;;;;;;5055115;28;20028;-81
2022/03/28 02:27:45;;;;;;;35.95;15.13;;;14.20;48.20;;;;;;5053620;28;20082;-80
2022/03/28 02:30:13;;;;;;;30.98;14.75;;;14.20;48.60;;;;;;5048361;28;20667;-81
2022/03/28 02:32:39;;;;;;;30.45;15.98;;;14.20;48.60;;;;;;5035007;28;20030;-80
2022/03/28 02:35:07;;;;;;;36.22;17.67;;;14.20;48.80;;;;;;5041849;28;20092;-80
2022/03/28 02:37:32;;;;;;;31.20;15.05;;;14.20;48.90;;;;;;5053594;28;20017;-81
2022/03/28 02:39:58;;;;;;;34.47;16.38;;;14.10;49.00;;;;;;5040454;28;20126;-81
2022/03/28 02:42:24;;;;;;;32.67;15.27;;;14.20;49.00;;;;;;5035001;28;20068;-81
2022/03/28 02:44:51;;;;;;;32.30;15.23;;;14.10;49.00;;;;;;5033590;28;20025;-81
2022/03/28 02:47:21;;;;;;;33.60;15.55;;;14.10;49.10;;;;;;5039480;28;20048;-81
2022/03/28 02:49:47;;;;;;;37.03;15.67;;;14.10;48.90;;;;;;5035849;28;20065;-81
2022/03/28 02:52:13;;;;;;;35.58;16.55;;;14.00;49.00;;;;;;5035050;28;20034;-80
2022/03/28 02:54:40;;;;;;;33.85;15.95;;;14.00;49.50;;;;;;5033415;28;20075;-80
2022/03/28 02:57:05;;;;;;;35.85;16.23;;;13.90;49.10;;;;;;5035117;28;20021;-80
2022/03/28 02:59:31;;;;;;;37.42;16.88;;;14.00;49.40;;;;;;5053299;28;20075;-80
2022/03/28 03:01:57;;;;;;;40.22;18.20;;;13.80;49.10;;;;;;5054682;28;20027;-80
2022/03/28 03:04:22;;;;;;;36.08;15.60;;;13.90;49.40;;;;;;5053524;28;20025;-80
2022/03/28 03:06:48;;;;;;;34.28;15.70;;;13.80;49.70;;;;;;5041501;28;20770;-81
2022/03/28 03:09:14;;;;;;;35.22;16.05;;;13.80;49.40;;;;;;5034653;28;20025;-81
2022/03/28 03:11:40;;;;;;;37.08;16.95;;;13.80;49.40;;;;;;5034582;28;20051;-80
2022/03/28 03:14:06;;;;;;;32.40;15.90;;;13.80;49.40;;;;;;5034844;28;20437;-80
2022/03/28 03:16:32;;;;;;;32.13;14.65;;;13.70;49.80;;;;;;5034529;28;20033;-80
2022/03/28 03:18:57;;;;;;;35.65;14.75;;;13.70;49.80;;;;;;5034825;28;20100;-81
2022/03/28 03:21:23;;;;;;;36.30;17.13;;;13.70;49.80;;;;;;5045859;28;20029;-80
2022/03/28 03:23:49;;;;;;;37.63;17.27;;;13.70;49.70;;;;;;5053191;28;20036;-80
2022/03/28 03:26:14;;;;;;;36.97;16.15;;;13.70;49.80;;;;;;5054273;28;20080;-80
2022/03/28 03:28:40;;;;;;;32.97;15.82;;;13.70;49.60;;;;;;5035497;28;20036;-81
2022/03/28 03:31:06;;;;;;;31.60;15.93;;;13.70;49.60;;;;;;5034576;28;20503;-81
2022/03/28 03:33:32;;;;;;;34.30;15.55;;;13.80;49.50;;;;;;5034554;28;20392;-80
2022/03/28 03:36:00;;;;;;;34.13;15.15;;;13.70;49.90;;;;;;5043230;28;20046;-80
2022/03/28 03:38:26;;;;;;;30.30;14.73;;;13.70;49.80;;;;;;5034354;28;20093;-80
2022/03/28 03:40:53;;;;;;;34.40;16.20;;;13.80;49.60;;;;;;5034407;28;20081;-81
2022/03/28 03:43:18;;;;;;;29.48;14.07;;;13.80;49.60;;;;;;5035774;28;20013;-81
2022/03/28 03:45:44;;;;;;;35.33;16.50;;;13.70;49.60;;;;;;5041134;28;20028;-80
2022/03/28 03:48:10;;;;;;;36.35;15.27;;;13.70;49.40;;;;;;5057975;28;20033;-80
2022/03/28 03:50:36;;;;;;;34.72;15.40;;;13.70;49.40;;;;;;5056656;28;20036;-81
2022/03/28 03:53:02;;;;;;;34.38;15.57;;;13.70;49.30;;;;;;5056581;28;20450;-81
2022/03/28 03:55:27;;;;;;;34.10;15.40;;;13.60;49.30;;;;;;5056198;28;20107;-81
2022/03/28 03:57:53;;;;;;;37.60;17.13;;;13.70;49.30;;;;;;5047243;28;20057;-80
2022/03/28 04:00:19;;;;;;;33.85;15.55;;;13.60;49.40;;;;;;5050542;28;20037;-80
2022/03/28 04:02:44;;;;;;;29.67;14.80;;;13.60;49.50;;;;;;5056242;28;20024;-80
2022/03/28 04:05:10;;;;;;;36.08;16.40;;;13.60;49.40;;;;;;5051622;28;20041;-80
2022/03/28 04:07:36;;;;;;;32.92;16.13;;;13.60;49.80;;;;;;5036366;28;20517;-80
2022/03/28 04:10:02;;;;;;;30.25;15.45;;;13.60;49.50;;;;;;5036113;28;20030;-80
2022/03/28 04:12:28;;;;;;;31.27;15.50;;;13.60;49.50;;;;;;5037829;28;20021;-81
2022/03/28 04:14:58;;;;;;;32.40;15.18;;;13.60;49.80;;;;;;5037563;28;20056;-80
2022/03/28 04:17:25;;;;;;;32.85;14.32;;;13.50;49.70;;;;;;5037498;28;20044;-80
2022/03/28 04:19:51;;;;;;;32.60;14.93;;;13.50;49.70;;;;;;5051561;28;20061;-80
2022/03/28 04:22:16;;;;;;;34.70;14.38;;;13.40;50.10;;;;;;5036800;28;20503;-80
2022/03/28 04:24:42;;;;;;;33.35;15.98;;;13.50;49.80;;;;;;5052597;28;20056;-80
2022/03/28 04:27:08;;;;;;;31.10;14.90;;;13.40;49.60;;;;;;5069163;28;20033;-80
2022/03/28 04:29:34;;;;;;;31.95;15.57;;;13.40;49.70;;;;;;5037896;28;20360;-80
2022/03/28 04:31:59;;;;;;;35.15;15.50;;;13.40;49.60;;;;;;5037262;28;20051;-80
2022/03/28 04:34:25;;;;;;;29.08;14.32;;;13.40;49.50;;;;;;5038860;28;20495;-80
2022/03/28 04:36:51;;;;;;;33.25;14.77;;;13.40;49.40;;;;;;5055387;28;20056;-80
2022/03/28 04:39:18;;;;;;;31.00;14.82;;;13.50;49.40;;;;;;5037303;28;20400;-80
2022/03/28 04:41:44;;;;;;;33.17;15.98;;;13.40;49.40;;;;;;5036204;28;20116;-81
2022/03/28 04:44:09;;;;;;;31.88;14.85;;;13.40;49.70;;;;;;5051236;28;20045;-80
2022/03/28 04:46:35;;;;;;;31.88;15.63;;;13.30;50.20;;;;;;5051184;28;20525;-76
2022/03/28 04:49:00;;;;;;;33.53;16.35;;;13.30;50.90;;;;;;5052186;28;20055;-78
2022/03/28 05:25:39;;;;;;;32.47;16.58;;;11.00;59.60;;;;;;5104735;27;20749;-80
2022/03/28 05:28:05;;;;;;;36.67;17.33;;;11.00;59.40;;;;;;5090221;28;20090;-80
2022/03/28 05:30:31;;;;;;;34.40;17.48;;;11.20;58.80;;;;;;5090804;28;20560;-77
2022/03/28 05:32:57;;;;;;;34.33;17.10;;;11.60;57.60;;;;;;5092397;28;20024;-78
2022/03/28 05:35:22;;;;;;;34.53;16.40;;;11.90;56.70;;;;;;5091418;28;20364;-77
2022/03/28 05:37:48;;;;;;;36.35;17.73;;;12.00;56.20;;;;;;5090309;28;20040;-75
2022/03/28 05:40:14;;;;;;;40.08;19.40;;;12.10;55.60;;;;;;5071919;28;20025;-77
2022/03/28 05:42:40;;;;;;;35.55;17.45;;;12.20;55.30;;;;;;5090941;28;20157;-79
2022/03/28 05:45:09;;;;;;;36.40;19.10;;;12.20;55.20;;;;;;5071807;28;20030;-77
2022/03/28 05:47:35;;;;;;;34.58;17.60;;;12.20;55.00;;;;;;5087896;28;20029;-77
2022/03/28 05:50:00;;;;;;;42.55;17.88;;;12.30;54.90;;;;;;5089485;28;20026;-77
2022/03/28 05:52:26;;;;;;;38.97;17.65;;;12.20;54.90;;;;;;5090232;28;20111;-78
2022/03/28 05:54:52;;;;;;;40.30;18.35;;;12.30;54.80;;;;;;5090680;28;20032;-77
2022/03/28 05:57:17;;;;;;;37.40;16.80;;;12.30;54.70;;;;;;5089223;28;20534;-77
2022/03/28 05:59:43;;;;;;;33.92;16.63;;;12.20;54.80;;;;;;5089179;28;20536;-77
2022/03/28 06:02:08;;;;;;;38.20;17.58;;;12.20;54.80;;;;;;5089018;28;20020;-79
2022/03/28 06:04:34;;;;;;;34.72;16.63;;;12.20;54.70;;;;;;5088266;28;20509;-80
2022/03/28 06:07:00;;;;;;;35.08;15.88;;;12.30;54.60;;;;;;5090721;28;20027;-80
2022/03/28 06:09:25;;;;;;;32.67;17.13;;;12.30;54.50;;;;;;5090829;28;20450;-79
2022/03/28 06:11:51;;;;;;;33.15;17.73;;;12.30;54.10;;;;;;5089906;28;20012;-79
2022/03/28 06:14:17;;;;;;;33.35;17.92;;;12.30;54.10;;;;;;5090041;28;20016;-79
2022/03/28 06:16:42;;;;;;;34.45;15.82;;;12.40;53.90;;;;;;5090062;28;20070;-79
2022/03/28 06:19:08;;;;;;;33.85;15.82;;;12.50;53.60;;;;;;5089868;28;20020;-78
2022/03/28 06:21:34;;;;;;;34.65;16.40;;;12.50;53.60;;;;;;5089776;28;20067;-78
2022/03/28 06:24:00;;;;;;;33.20;16.52;;;12.60;53.40;;;;;;5087791;28;20090;-79
2022/03/28 06:26:26;;;;;;;36.30;15.68;;;12.50;53.40;;;;;;5031001;28;20045;-78
2022/03/28 06:28:52;;;;;;;36.75;17.08;;;12.50;53.30;;;;;;5025686;28;20026;-79
2022/03/28 06:31:18;;;;;;;34.95;16.02;;;12.60;53.10;;;;;;5029348;28;20479;-79
2022/03/28 06:33:43;;;;;;;30.88;16.52;;;12.70;52.80;;;;;;5029293;28;20049;-78
2022/03/28 06:36:10;;;;;;;33.80;17.15;;;12.80;52.80;;;;;;5014284;28;20775;-80
2022/03/28 06:38:36;;;;;;;34.90;15.30;;;12.90;52.20;;;;;;5016216;28;20093;-80
2022/03/28 06:41:02;;;;;;;33.47;16.05;;;12.90;52.30;;;;;;5052776;28;20033;-81
2022/03/28 06:43:28;;;;;;;34.58;16.27;;;13.00;51.90;;;;;;5033488;28;20399;-80
2022/03/28 06:45:54;;;;;;;31.33;15.45;;;13.00;51.70;;;;;;5014823;28;20116;-80
2022/03/28 06:48:20;;;;;;;32.75;16.63;;;13.10;51.60;;;;;;5016380;28;20072;-80
2022/03/28 06:50:46;;;;;;;32.92;15.18;;;13.10;51.80;;;;;;5016419;28;20030;-81
2022/03/28 06:53:12;;;;;;;32.95;16.63;;;13.20;51.50;;;;;;5013906;28;20006;-80
2022/03/28 06:55:38;;;;;;;35.92;16.73;;;13.20;51.40;;;;;;5019939;28;20026;-80
2022/03/28 06:58:04;;;;;;;32.83;16.75;;;13.20;51.50;;;;;;4991208;28;20023;-80
2022/03/28 07:00:30;;;;;;;33.20;15.68;;;13.20;51.50;;;;;;4992005;28;20050;-80
2022/03/28 07:02:55;;;;;;;35.67;15.10;;;13.20;51.20;;;;;;4997826;28;20030;-80
2022/03/28 07:05:21;;;;;;;36.53;17.85;;;13.30;51.00;;;;;;4984816;28;20106;-80
2022/03/28 07:07:48;;;;;;;32.33;17.38;;;13.30;51.10;;;;;;4996354;28;20057;-79
2022/03/28 07:10:16;;;;;;;35.22;16.95;;;13.30;51.00;;;;;;4996471;28;20030;-79
2022/03/28 07:12:42;;;;;;;31.48;16.40;;;13.30;51.20;;;;;;4995809;28;20049;-79
2022/03/28 07:15:10;;;;;;;33.17;16.52;;;13.40;51.10;;;;;;5012420;28;20027;-79
2022/03/28 07:18:02;;;;;;;30.90;15.63;;;13.50;50.90;;;;;;4997443;28;20536;-79
2022/03/28 07:20:30;;;;;;;36.40;16.88;;;13.50;51.10;;;;;;4992923;28;20050;-79
2022/03/28 07:22:58;;;;;;;30.48;15.93;;;13.50;50.80;;;;;;4997495;28;20022;-79
2022/03/28 07:25:25;;;;;;;31.90;14.98;;;13.70;50.70;;;;;;4996723;28;20081;-79
2022/03/28 07:27:52;;;;;;;29.65;15.52;;;13.70;50.70;;;;;;4995072;28;20046;-79
2022/03/28 07:30:20;;;;;;;28.52;15.18;;;13.70;50.50;;;;;;4996721;28;20037;-79
2022/03/28 07:32:46;;;;;;;30.10;16.17;;;13.90;50.40;;;;;;4997551;28;20131;-79
2022/03/28 07:35:14;;;;;;;28.55;15.27;;;14.20;49.70;;;;;;4995665;28;20436;-79
2022/03/28 07:37:41;;;;;;;34.53;17.58;;;14.50;48.70;;;;;;5012212;28;20026;-79
2022/03/28 07:40:08;;;;;;;30.15;15.23;;;14.60;48.10;;;;;;4996972;28;20030;-79
2022/03/28 07:42:35;;;;;;;37.00;15.88;;;14.70;48.20;;;;;;4996685;28;20027;-80
2022/03/28 07:45:02;;;;;;;32.75;16.73;;;15.00;47.60;;;;;;4992333;28;20037;-80
2022/03/28 07:47:28;;;;;;;30.25;16.20;;;15.40;46.80;;;;;;4982928;28;20020;-79
2022/03/28 07:49:55;;;;;;;30.98;16.48;;;15.80;46.00;;;;;;4996584;28;20027;-79
2022/03/28 07:52:21;;;;;;;31.42;15.80;;;15.80;45.80;;;;;;4995479;28;20469;-80
2022/03/28 07:54:48;;;;;;;25.70;14.55;;;15.80;46.00;;;;;;4993914;28;20030;-79
2022/03/28 07:57:15;;;;;;;26.92;14.73;;;15.80;45.90;;;;;;4992308;28;20130;-79
2022/03/28 07:59:48;;;;;;;31.33;16.38;;;15.80;46.00;;;;;;4984598;28;20033;-78
2022/03/28 08:02:15;;;;;;;28.90;15.52;;;15.90;45.80;;;;;;4996118;28;20038;-78
2022/03/28 08:04:43;;;;;;;29.77;16.10;;;16.00;45.70;;;;;;4995800;28;20033;-73
2022/03/28 08:07:10;;;;;;;29.60;15.00;;;16.30;45.40;;;;;;5002092;28;20085;-74
2022/03/28 08:09:37;;;;;;;27.77;15.77;;;16.60;45.20;;;;;;5004539;28;20026;-73
2022/03/28 08:12:04;;;;;;;27.70;16.23;;;16.60;45.30;;;;;;4993007;28;20113;-74
2022/03/28 08:14:30;;;;;;;27.83;16.35;;;16.60;45.10;;;;;;5007431;28;20038;-73
2022/03/28 08:16:56;;;;;;;31.20;16.75;;;16.80;45.00;;;;;;5015849;28;20026;-73
2022/03/28 08:19:22;;;;;;;29.55;15.60;;;16.80;44.90;;;;;;5019865;28;20100;-74
2022/03/28 08:21:48;;;;;;;26.17;15.48;;;16.80;44.80;;;;;;5015316;28;20041;-73
2022/03/28 08:24:14;;;;;;;28.48;15.68;;;16.80;44.90;;;;;;5015119;28;20455;-73
2022/03/28 08:26:40;;;;;;;29.27;15.48;;;16.70;45.40;;;;;;5015929;28;20076;-74
2022/03/28 08:29:06;;;;;;;28.02;14.90;;;16.70;45.60;;;;;;5015866;28;20033;-74
2022/03/28 08:31:32;;;;;;;27.65;16.67;;;16.70;45.90;;;;;;5015625;28;20033;-74
2022/03/28 08:33:59;;;;;;;27.90;15.15;;;16.60;46.20;;;;;;5015265;28;20408;-73
2022/03/28 08:36:24;;;;;;;26.98;15.30;;;16.60;46.30;;;;;;5015422;28;20014;-73
2022/03/28 08:38:50;;;;;;;27.40;16.13;;;16.70;46.40;;;;;;5014940;28;20072;-74
2022/03/28 08:41:18;;;;;;;27.02;14.63;;;16.80;46.10;;;;;;5015661;28;20025;-74
2022/03/28 08:43:45;;;;;;;27.17;15.32;;;16.80;46.30;;;;;;5001045;28;20030;-74
2022/03/28 08:46:11;;;;;;;25.58;15.52;;;17.00;46.40;;;;;;5010972;28;20678;-73
2022/03/28 08:48:40;;;;;;;29.95;15.18;;;17.20;45.40;;;;;;5013760;28;20489;-73
2022/03/28 08:51:10;;;;;;;33.28;15.65;;;17.60;44.90;;;;;;4995900;28;20030;-74
2022/03/28 08:53:37;;;;;;;29.67;16.08;;;17.80;45.10;;;;;;4995678;28;20525;-74
2022/03/28 08:56:03;;;;;;;26.00;15.52;;;17.90;44.60;;;;;;4995089;28;20026;-74
2022/03/28 08:58:29;;;;;;;25.58;15.07;;;17.90;44.70;;;;;;5010686;28;20030;-74
2022/03/28 09:00:55;;;;;;;27.85;16.95;;;17.90;44.80;;;;;;5012189;28;20545;-73
2022/03/28 09:03:47;;;;;;;26.67;15.00;;;18.00;44.80;;;;;;5015281;28;20018;-73
2022/03/28 09:06:33;;;;;;;27.23;14.57;;;18.30;45.00;;;;;;5000441;28;20113;-73
2022/03/28 09:09:26;;;;;;;28.98;14.50;;;18.80;43.80;;;;;;4995669;28;20022;-74
2022/03/28 09:12:08;;;;;;;27.33;14.48;;;18.80;43.40;;;;;;5021525;28;20037;-74
2022/03/28 09:14:36;;;;;;;24.98;14.80;;;18.80;44.00;;;;;;5029417;28;20563;-74
2022/03/28 09:17:10;;;;;;;23.48;13.73;;;18.80;44.00;;;;;;5014577;28;20046;-74
2022/03/28 09:19:50;;;;;;;29.33;15.13;;;19.30;43.20;;;;;;5014583;28;20036;-73
2022/03/28 09:22:23;;;;;;;24.55;15.40;;;19.80;42.90;;;;;;5014148;28;20081;-74
2022/03/28 09:24:49;;;;;;;23.90;14.05;;;20.00;42.40;;;;;;5012851;28;20050;-74
2022/03/28 09:27:19;;;;;;;30.27;15.65;;;19.90;42.30;;;;;;5013640;28;20010;-73
2022/03/28 09:29:52;;;;;;;;;;;19.90;42.10;;;;;;5026069;28;20033;-75
2022/03/28 09:32:24;;;;;;;22.40;14.43;;;20.00;42.00;;;;;;4997380;28;19916;-74
2022/03/28 09:35:20;;;;;;;23.67;14.98;;;19.80;42.70;;;;;;5013429;28;20037;-74
2022/03/28 09:37:52;;;;;;;22.80;13.43;;;19.50;44.10;;;;;;5014687;28;20117;-74
2022/03/28 09:40:28;;;;;;;28.85;14.15;;;19.40;43.50;;;;;;5029843;28;20022;-74
2022/03/28 09:42:54;;;;;;;26.95;15.18;;;19.30;43.60;;;;;;5029691;28;20050;-73
2022/03/28 09:45:30;;;;;;;23.30;14.52;;;19.40;44.70;;;;;;5020723;28;20027;-73
2022/03/28 09:48:01;;;;;;;25.25;14.20;;;19.40;44.50;;;;;;5005583;28;20045;-74
2022/03/28 09:50:46;;;;;;;21.75;13.52;;;19.60;44.20;;;;;;5012477;28;20052;-74
2022/03/28 09:53:16;;;;;;;27.23;13.48;;;19.70;43.90;;;;;;5027157;28;20369;-74
2022/03/28 09:55:59;;;;;;;;;;;19.30;43.90;;;;;;5015117;28;20022;-73
2022/03/28 09:58:37;;;;;;;20.30;11.85;;;19.30;45.30;;;;;;5012566;28;19914;-74
2022/03/28 10:01:12;;;;;;;22.65;11.52;;;19.60;44.20;;;;;;5029613;28;20704;-74
2022/03/28 10:03:38;;;;;;;22.25;11.80;;;19.80;43.60;;;;;;5014354;28;20022;-74
2022/03/28 10:06:06;;;;;;;20.17;12.05;;;19.70;43.90;;;;;;5011429;28;20088;-74
2022/03/28 10:08:33;;;;;;;18.73;11.70;;;19.80;44.30;;;;;;5014046;28;20018;-73
2022/03/28 10:10:59;;;;;;;22.50;11.73;;;19.60;43.10;;;;;;5011290;28;20044;-74
2022/03/28 10:13:26;;;;;;;21.77;11.43;;;19.40;43.70;;;;;;4998849;28;20153;-74
2022/03/28 10:15:53;;;;;;;18.92;11.10;;;19.50;45.00;;;;;;4998882;28;20026;-73
2022/03/28 10:18:19;;;;;;;20.15;11.85;;;19.70;44.20;;;;;;5008121;28;20022;-74
2022/03/28 10:20:47;;;;;;;20.95;11.98;;;19.70;44.40;;;;;;5018015;28;20017;-74
2022/03/28 10:23:17;;;;;;;18.52;10.95;;;19.80;44.70;;;;;;5032330;28;20104;-75
2022/03/28 10:25:43;;;;;;;24.23;11.68;;;19.80;44.20;;;;;;5011731;28;20030;-74
2022/03/28 10:28:09;;;;;;;19.48;11.18;;;19.80;43.90;;;;;;4998255;28;20113;-73
2022/03/28 10:30:35;;;;;;;17.33;9.68;;;19.90;43.60;;;;;;4998754;28;20041;-74
2022/03/28 10:33:19;;;;;;;21.40;10.98;;;20.00;44.50;;;;;;4998505;28;20115;-73
2022/03/28 10:36:05;;;;;;;18.05;10.40;;;20.00;43.60;;;;;;5013790;28;20049;-73
2022/03/28 10:38:31;;;;;;;21.45;10.57;;;19.80;43.10;;;;;;4998499;28;20030;-74
2022/03/28 10:41:02;;;;;;;22.50;10.45;;;19.80;43.70;;;;;;4997757;28;20019;-74
2022/03/28 10:43:30;;;;;;;18.40;10.43;;;19.70;43.70;;;;;;5012398;28;20050;-74
2022/03/28 10:46:21;;;;;;;19.77;10.15;;;19.80;43.70;;;;;;4998114;28;20022;-74
2022/03/28 10:48:59;;;;;;;20.17;10.55;;;20.00;44.20;;;;;;5028335;28;20041;-74
2022/03/28 10:51:30;;;;;;;17.58;10.13;;;20.00;43.20;;;;;;5017705;28;20491;-74
2022/03/28 10:54:05;;;;;;;;;;;20.20;43.80;;;;;;5010136;28;20112;-73
2022/03/28 10:56:34;;;;;;;20.48;10.77;;;20.30;43.90;;;;;;4998186;28;19957;-75
2022/03/28 10:59:05;;;;;;;18.33;10.60;;;20.60;42.40;;;;;;5000071;28;20072;-74
2022/03/28 11:01:42;;;;;;;22.83;11.13;;;20.80;43.10;;;;;;5016936;28;20108;-74
2022/03/28 11:04:16;;;;;;;19.38;11.18;;;20.70;42.20;;;;;;5017074;28;20025;-75
2022/03/28 11:07:03;;;;;;;21.63;11.07;;;20.60;42.40;;;;;;5032593;28;20034;-75
2022/03/28 11:09:49;;;;;;;21.30;10.80;;;20.70;42.10;;;;;;5016239;28;20040;-74
2022/03/28 11:12:27;;;;;;;18.95;11.00;;;20.60;42.40;;;;;;5015637;28;20034;-73
2022/03/28 11:14:56;;;;;;;19.95;11.30;;;20.70;42.60;;;;;;5017385;28;20030;-73
2022/03/28 11:17:31;;;;;;;18.65;12.05;;;20.90;41.50;;;;;;5003903;28;20883;-74
2022/03/28 11:20:00;;;;;;;19.45;10.65;;;20.90;40.80;;;;;;5013609;28;20024;-75
2022/03/28 11:22:49;;;;;;;19.35;10.13;;;20.80;41.00;;;;;;5031901;28;20064;-74
2022/03/28 11:25:30;;;;;;;16.40;9.95;;;20.90;41.90;;;;;;5016723;28;20065;-74
2022/03/28 11:28:08;;;;;;;17.83;11.50;;;21.30;41.80;;;;;;5012848;28;20038;-74
2022/03/28 11:30:48;;;;;;;19.55;11.25;;;21.30;42.10;;;;;;4997668;28;20050;-74
2022/03/28 11:33:18;;;;;;;21.45;11.15;;;21.20;41.30;;;;;;5005658;28;20037;-74
2022/03/28 11:36:11;;;;;;;22.23;11.70;;;21.00;41.20;;;;;;5017039;28;20033;-74
2022/03/28 11:38:44;;;;;;;22.13;11.63;;;20.90;43.50;;;;;;5016193;28;20408;-75
2022/03/28 11:41:12;;;;;;;20.17;11.45;;;21.00;43.70;;;;;;5030037;28;20029;-74
2022/03/28 11:43:46;;;;;;;23.10;11.65;;;21.20;42.30;;;;;;5017008;28;20030;-74
2022/03/28 11:46:18;;;;;;;18.65;11.65;;;21.00;43.00;;;;;;5010538;28;20026;-74
2022/03/28 11:48:57;;;;;;;23.55;12.50;;;21.20;42.20;;;;;;5014034;28;20034;-74
2022/03/28 11:51:25;;;;;;;18.38;10.93;;;21.20;42.00;;;;;;5015427;28;20022;-74
2022/03/28 11:53:51;;;;;;;18.70;10.95;;;21.10;41.60;;;;;;5011590;28;20069;-74
2022/03/28 11:56:28;;;;;;;21.92;10.15;;;21.20;42.90;;;;;;5011520;28;20033;-74
2022/03/28 11:59:02;;;;;;;20.52;10.90;;;21.30;42.90;;;;;;5012881;28;20023;-73
2022/03/28 12:01:29;;;;;;;20.35;11.63;;;21.40;42.10;;;;;;5030459;28;20057;-74
2022/03/28 12:03:55;;;;;;;17.63;11.23;;;21.40;42.20;;;;;;5031658;28;20034;-75
2022/03/28 12:06:40;;;;;;;24.90;11.90;;;21.30;41.80;;;;;;5031868;28;20030;-75
2022/03/28 12:09:07;;;;;;;21.48;10.90;;;21.30;43.00;;;;;;5016297;28;20401;-78
2022/03/28 12:11:37;;;;;;;20.48;10.10;;;21.40;42.10;;;;;;5012779;28;20053;-78
2022/03/28 12:14:03;;;;;;;;;;;21.60;41.40;;;;;;5016389;28;20033;-79
2022/03/28 12:16:29;;;;;;;19.25;9.02;;;21.60;41.50;;;;;;5015720;28;20272;-79
2022/03/28 12:18:58;;;;;;;20.23;9.30;;;21.50;40.90;;;;;;5016268;28;20030;-78
2022/03/28 12:21:26;;;;;;;18.90;8.90;;;21.70;40.90;;;;;;5002870;28;20031;-79
2022/03/28 12:23:52;;;;;;;9.75;6.72;;;21.80;41.50;;;;;;5011319;28;20308;-78
2022/03/28 12:26:17;;;;;;;18.48;6.45;;;21.90;40.70;;;;;;4995917;28;20038;-79
2022/03/28 12:28:46;;;;;;;10.85;6.00;;;21.80;37.80;;;;;;4996555;28;20034;-74
2022/03/28 12:31:12;;;;;;;15.23;7.30;;;21.80;37.40;;;;;;5015096;28;20500;-74
2022/03/28 12:33:43;;;;;;;17.42;6.07;;;21.80;38.20;;;;;;5001163;28;20034;-74
2022/03/28 12:36:24;;;;;;;11.88;6.05;;;21.60;36.90;;;;;;5019098;28;20057;-73
2022/03/28 12:39:04;;;;;;;11.45;6.15;;;21.60;37.30;;;;;;5015861;28;20389;-74
2022/03/28 12:41:30;;;;;;;13.00;5.38;;;21.80;36.20;;;;;;5013394;28;20022;-74
2022/03/28 12:43:56;;;;;;;15.65;5.97;;;21.90;37.10;;;;;;5015914;28;20080;-73
2022/03/28 12:46:23;;;;;;;12.38;5.43;;;21.80;36.10;;;;;;5015988;28;20982;-74
2022/03/28 12:48:54;;;;;;;14.10;5.25;;;21.90;36.80;;;;;;5012975;28;20064;-74
2022/03/28 12:51:36;;;;;;;9.63;5.30;;;21.90;36.30;;;;;;5010708;28;20061;-74
2022/03/28 12:54:05;;;;;;;14.30;5.50;;;22.00;35.70;;;;;;5010831;28;20030;-76
2022/03/28 12:56:42;;;;;;;12.05;5.47;;;22.20;35.20;;;;;;5011040;28;20026;-74
2022/03/28 12:59:09;;;;;;;15.40;6.20;;;22.30;36.10;;;;;;5013476;28;20029;-74
2022/03/28 13:01:35;;;;;;;15.98;6.85;;;21.90;36.60;;;;;;5010314;28;20102;-74
2022/03/28 13:04:18;;;;;;;14.32;8.55;;;22.00;38.60;;;;;;5003876;28;20096;-77
2022/03/28 13:06:50;;;;;;;12.38;6.50;;;22.20;39.60;;;;;;5003185;28;20504;-78
2022/03/28 13:09:20;;;;;;;15.40;6.20;;;22.00;37.50;;;;;;5004350;28;20021;-77